sensor_id;sensor_type;location;lat;lon;timestamp;temperature;humidity
46378;DHT22;32083;47.360;9.650;2024-01-27T05:17:43;6.50;99.90
46378;DHT22;32083;47.360;9.650;2024-01-27T05:53:49;6.10;99.90
46378;DHT22;32083;47.360;9.650;2024-01-27T05:56:18;6.10;99.90
46378;DHT22;32083;47.360;9.650;2024-01-27T05:58:51;6.10;99.90
46378;DHT22;32083;47.360;9.650;2024-01-27T06:01:20;6.10;99.90
46378;DHT22;32083;47.360;9.650;2024-01-27T06:03:47;6.10;99.90
46378;DHT22;32083;47.360;9.650;2024-01-27T06:06:16;6.10;99.90
46378;DHT22;32083;47.360;9.650;2024-01-27T06:08:42;6.10;99.90
46378;DHT22;32083;47.360;9.650;2024-01-27T06:11:08;6.00;99.90
46378;DHT22;32083;47.360;9.650;2024-01-27T06:13:35;6.00;99.90
46378;DHT22;32083;47.360;9.650;2024-01-27T06:16:07;6.00;99.90
46378;DHT22;32083;47.360;9.650;2024-01-27T06:18:37;5.90;99.90
46378;DHT22;32083;47.360;9.650;2024-01-27T06:56:42;5.40;99.90
46378;DHT22;32083;47.360;9.650;2024-01-27T07:01:47;5.30;99.90
46378;DHT22;32083;47.360;9.650;2024-01-27T07:04:19;5.30;99.90
46378;DHT22;32083;47.360;9.650;2024-01-27T07:06:45;5.30;99.90
46378;DHT22;32083;47.360;9.650;2024-01-27T07:09:13;5.20;99.90
46378;DHT22;32083;47.360;9.650;2024-01-27T07:11:43;5.20;99.90
46378;DHT22;32083;47.360;9.650;2024-01-27T07:14:12;5.10;99.90
46378;DHT22;32083;47.360;9.650;2024-01-27T07:16:37;5.10;99.90
46378;DHT22;32083;47.360;9.650;2024-01-27T07:19:03;5.10;99.90
46378;DHT22;32083;47.360;9.650;2024-01-27T07:21:35;5.10;99.90
46378;DHT22;32083;47.360;9.650;2024-01-27T07:24:00;5.10;99.90
46378;DHT22;32083;47.360;9.650;2024-01-27T07:26:28;5.10;99.90
46378;DHT22;32083;47.360;9.650;2024-01-27T07:28:55;5.10;99.90
46378;DHT22;32083;47.360;9.650;2024-01-27T07:31:21;5.00;99.90
46378;DHT22;32083;47.360;9.650;2024-01-27T07:33:49;5.00;99.90
46378;DHT22;32083;47.360;9.650;2024-01-27T07:36:27;5.00;99.90
46378;DHT22;32083;47.360;9.650;2024-01-27T07:39:10;5.00;99.90
46378;DHT22;32083;47.360;9.650;2024-01-27T07:41:41;5.00;99.90
46378;DHT22;32083;47.360;9.650;2024-01-27T07:44:13;4.90;99.90
46378;DHT22;32083;47.360;9.650;2024-01-27T07:46:41;4.90;99.90
46378;DHT22;32083;47.360;9.650;2024-01-27T07:49:08;4.90;99.90
46378;DHT22;32083;47.360;9.650;2024-01-27T07:51:34;4.90;99.90
46378;DHT22;32083;47.360;9.650;2024-01-27T07:54:01;4.80;99.90
46378;DHT22;32083;47.360;9.650;2024-01-27T07:56:27;4.70;99.90
46378;DHT22;32083;47.360;9.650;2024-01-27T07:58:53;4.80;99.90
46378;DHT22;32083;47.360;9.650;2024-01-27T08:01:19;4.80;99.90
46378;DHT22;32083;47.360;9.650;2024-01-27T08:03:46;4.80;99.90
46378;DHT22;32083;47.360;9.650;2024-01-27T08:06:16;4.80;99.90
46378;DHT22;32083;47.360;9.650;2024-01-27T08:08:47;4.80;99.90
46378;DHT22;32083;47.360;9.650;2024-01-27T08:11:17;4.80;99.90
46378;DHT22;32083;47.360;9.650;2024-01-27T08:13:43;4.80;99.90
46378;DHT22;32083;47.360;9.650;2024-01-27T08:16:09;4.80;99.90
46378;DHT22;32083;47.360;9.650;2024-01-27T08:18:38;4.80;99.90
46378;DHT22;32083;47.360;9.650;2024-01-27T08:21:05;4.90;99.90
46378;DHT22;32083;47.360;9.650;2024-01-27T08:23:31;5.00;99.90
46378;DHT22;32083;47.360;9.650;2024-01-27T08:25:57;5.10;99.90
46378;DHT22;32083;47.360;9.650;2024-01-27T08:28:23;5.20;99.90
46378;DHT22;32083;47.360;9.650;2024-01-27T08:30:49;5.20;99.90
46378;DHT22;32083;47.360;9.650;2024-01-27T08:33:15;5.30;99.90
46378;DHT22;32083;47.360;9.650;2024-01-27T08:35:41;5.40;99.90
46378;DHT22;32083;47.360;9.650;2024-01-27T08:38:07;5.40;99.90
46378;DHT22;32083;47.360;9.650;2024-01-27T08:40:35;5.50;99.90
46378;DHT22;32083;47.360;9.650;2024-01-27T08:43:01;5.60;99.90
46378;DHT22;32083;47.360;9.650;2024-01-27T08:45:28;5.60;99.90
46378;DHT22;32083;47.360;9.650;2024-01-27T08:47:54;5.60;99.90
46378;DHT22;32083;47.360;9.650;2024-01-27T08:50:21;5.70;99.90
46378;DHT22;32083;47.360;9.650;2024-01-27T08:52:47;5.70;99.90
46378;DHT22;32083;47.360;9.650;2024-01-27T08:55:14;5.80;99.90
46378;DHT22;32083;47.360;9.650;2024-01-27T08:57:42;5.80;99.90
46378;DHT22;32083;47.360;9.650;2024-01-27T09:00:08;5.80;99.90
46378;DHT22;32083;47.360;9.650;2024-01-27T09:02:35;5.80;99.90
46378;DHT22;32083;47.360;9.650;2024-01-27T09:05:01;5.90;99.90
46378;DHT22;32083;47.360;9.650;2024-01-27T09:07:28;5.90;99.90
46378;DHT22;32083;47.360;9.650;2024-01-27T09:09:54;5.90;99.90
46378;DHT22;32083;47.360;9.650;2024-01-27T09:12:20;5.90;99.90
46378;DHT22;32083;47.360;9.650;2024-01-27T09:14:47;6.00;99.90
46378;DHT22;32083;47.360;9.650;2024-01-27T09:17:13;5.90;99.90
46378;DHT22;32083;47.360;9.650;2024-01-27T09:19:39;6.00;99.90
46378;DHT22;32083;47.360;9.650;2024-01-27T09:22:05;6.00;99.90
46378;DHT22;32083;47.360;9.650;2024-01-27T09:24:31;6.10;99.90
46378;DHT22;32083;47.360;9.650;2024-01-27T09:26:57;6.10;99.90
46378;DHT22;32083;47.360;9.650;2024-01-27T09:29:23;6.10;99.90
46378;DHT22;32083;47.360;9.650;2024-01-27T09:31:49;6.10;99.90
46378;DHT22;32083;47.360;9.650;2024-01-27T09:34:15;6.10;99.90
46378;DHT22;32083;47.360;9.650;2024-01-27T09:36:41;6.10;99.90
46378;DHT22;32083;47.360;9.650;2024-01-27T09:39:07;6.10;99.90
46378;DHT22;32083;47.360;9.650;2024-01-27T09:41:34;6.10;99.90
46378;DHT22;32083;47.360;9.650;2024-01-27T09:44:04;6.10;99.90
46378;DHT22;32083;47.360;9.650;2024-01-27T09:46:31;6.20;99.90
46378;DHT22;32083;47.360;9.650;2024-01-27T09:48:58;6.30;99.90
46378;DHT22;32083;47.360;9.650;2024-01-27T09:51:25;6.30;99.90
46378;DHT22;32083;47.360;9.650;2024-01-27T09:53:52;6.30;99.90
46378;DHT22;32083;47.360;9.650;2024-01-27T09:56:18;6.30;99.90
46378;DHT22;32083;47.360;9.650;2024-01-27T09:58:46;6.30;99.90
46378;DHT22;32083;47.360;9.650;2024-01-27T10:01:13;6.40;99.90
46378;DHT22;32083;47.360;9.650;2024-01-27T10:03:41;6.40;99.90
46378;DHT22;32083;47.360;9.650;2024-01-27T10:06:09;6.40;99.90
46378;DHT22;32083;47.360;9.650;2024-01-27T10:08:36;6.40;99.90
46378;DHT22;32083;47.360;9.650;2024-01-27T10:11:09;6.40;99.90
46378;DHT22;32083;47.360;9.650;2024-01-27T10:13:36;6.40;99.90
46378;DHT22;32083;47.360;9.650;2024-01-27T10:16:03;6.40;99.90
46378;DHT22;32083;47.360;9.650;2024-01-27T10:18:30;6.40;99.90
46378;DHT22;32083;47.360;9.650;2024-01-27T10:20:57;6.50;99.90
46378;DHT22;32083;47.360;9.650;2024-01-27T10:23:24;6.50;99.90
46378;DHT22;32083;47.360;9.650;2024-01-27T10:25:51;6.60;99.90
46378;DHT22;32083;47.360;9.650;2024-01-27T10:28:18;6.70;99.90
46378;DHT22;32083;47.360;9.650;2024-01-27T10:30:44;6.70;99.90
46378;DHT22;32083;47.360;9.650;2024-01-27T10:33:12;6.80;99.90
46378;DHT22;32083;47.360;9.650;2024-01-27T10:35:42;6.80;99.90
46378;DHT22;32083;47.360;9.650;2024-01-27T10:38:08;6.80;99.90
46378;DHT22;32083;47.360;9.650;2024-01-27T10:40:35;6.80;99.90
46378;DHT22;32083;47.360;9.650;2024-01-27T10:43:08;6.90;99.90
46378;DHT22;32083;47.360;9.650;2024-01-27T10:45:37;6.90;99.90
46378;DHT22;32083;47.360;9.650;2024-01-27T10:48:05;6.90;99.90
46378;DHT22;32083;47.360;9.650;2024-01-27T10:50:36;6.90;99.90
46378;DHT22;32083;47.360;9.650;2024-01-27T10:53:09;7.00;99.90
46378;DHT22;32083;47.360;9.650;2024-01-27T10:55:42;7.10;99.90
46378;DHT22;32083;47.360;9.650;2024-01-27T10:58:10;7.10;99.90
46378;DHT22;32083;47.360;9.650;2024-01-27T11:00:38;7.20;99.90
46378;DHT22;32083;47.360;9.650;2024-01-27T11:03:08;7.20;99.90
46378;DHT22;32083;47.360;9.650;2024-01-27T11:05:36;7.20;99.90
46378;DHT22;32083;47.360;9.650;2024-01-27T11:08:06;7.20;99.90
46378;DHT22;32083;47.360;9.650;2024-01-27T11:10:34;7.30;99.90
46378;DHT22;32083;47.360;9.650;2024-01-27T11:13:04;7.30;99.90
46378;DHT22;32083;47.360;9.650;2024-01-27T11:15:30;7.30;99.90
46378;DHT22;32083;47.360;9.650;2024-01-27T11:17:58;7.30;99.90
46378;DHT22;32083;47.360;9.650;2024-01-27T11:20:25;7.40;99.90
46378;DHT22;32083;47.360;9.650;2024-01-27T11:22:52;7.40;99.90
46378;DHT22;32083;47.360;9.650;2024-01-27T11:25:19;7.40;99.90
46378;DHT22;32083;47.360;9.650;2024-01-27T11:27:46;7.50;99.90
46378;DHT22;32083;47.360;9.650;2024-01-27T11:30:31;7.50;99.90
46378;DHT22;32083;47.360;9.650;2024-01-27T11:33:01;7.50;99.90
46378;DHT22;32083;47.360;9.650;2024-01-27T11:35:29;7.50;99.90
46378;DHT22;32083;47.360;9.650;2024-01-27T11:37:55;7.60;99.90
46378;DHT22;32083;47.360;9.650;2024-01-27T11:40:21;7.60;99.90
46378;DHT22;32083;47.360;9.650;2024-01-27T11:42:57;7.70;99.90
46378;DHT22;32083;47.360;9.650;2024-01-27T11:45:23;7.70;99.90
46378;DHT22;32083;47.360;9.650;2024-01-27T11:47:50;7.80;99.90
46378;DHT22;32083;47.360;9.650;2024-01-27T11:50:20;7.80;99.90
46378;DHT22;32083;47.360;9.650;2024-01-27T11:52:46;7.90;99.90
46378;DHT22;32083;47.360;9.650;2024-01-27T11:55:13;7.90;99.90
46378;DHT22;32083;47.360;9.650;2024-01-27T11:57:41;7.90;99.90
46378;DHT22;32083;47.360;9.650;2024-01-27T12:00:08;7.90;99.90
46378;DHT22;32083;47.360;9.650;2024-01-27T12:02:41;8.00;99.90
46378;DHT22;32083;47.360;9.650;2024-01-27T12:05:08;8.00;99.90
46378;DHT22;32083;47.360;9.650;2024-01-27T12:07:35;8.10;99.90
46378;DHT22;32083;47.360;9.650;2024-01-27T12:10:01;8.20;99.90
46378;DHT22;32083;47.360;9.650;2024-01-27T12:12:27;8.10;99.90
46378;DHT22;32083;47.360;9.650;2024-01-27T12:14:53;8.20;99.90
46378;DHT22;32083;47.360;9.650;2024-01-27T12:17:22;8.20;99.90
46378;DHT22;32083;47.360;9.650;2024-01-27T12:19:51;8.30;99.90
46378;DHT22;32083;47.360;9.650;2024-01-27T12:22:23;8.30;99.90
46378;DHT22;32083;47.360;9.650;2024-01-27T12:24:49;8.40;99.90
46378;DHT22;32083;47.360;9.650;2024-01-27T12:27:18;8.30;99.90
46378;DHT22;32083;47.360;9.650;2024-01-27T12:29:47;8.40;99.90
46378;DHT22;32083;47.360;9.650;2024-01-27T12:32:15;8.40;99.90
46378;DHT22;32083;47.360;9.650;2024-01-27T12:34:42;8.50;99.90
46378;DHT22;32083;47.360;9.650;2024-01-27T12:37:10;8.50;99.90
46378;DHT22;32083;47.360;9.650;2024-01-27T12:39:36;8.60;99.90
46378;DHT22;32083;47.360;9.650;2024-01-27T12:42:05;8.60;99.90
46378;DHT22;32083;47.360;9.650;2024-01-27T12:44:31;8.70;99.90
46378;DHT22;32083;47.360;9.650;2024-01-27T12:46:57;8.70;99.90
46378;DHT22;32083;47.360;9.650;2024-01-27T12:49:23;8.80;99.90
46378;DHT22;32083;47.360;9.650;2024-01-27T12:51:49;8.90;99.90
46378;DHT22;32083;47.360;9.650;2024-01-27T12:54:15;8.90;99.90
46378;DHT22;32083;47.360;9.650;2024-01-27T12:56:42;8.90;99.90
46378;DHT22;32083;47.360;9.650;2024-01-27T12:59:08;9.00;99.90
46378;DHT22;32083;47.360;9.650;2024-01-27T13:01:34;8.90;99.90
46378;DHT22;32083;47.360;9.650;2024-01-27T13:04:00;8.90;99.90
46378;DHT22;32083;47.360;9.650;2024-01-27T13:06:27;8.90;99.90
46378;DHT22;32083;47.360;9.650;2024-01-27T13:08:53;9.00;99.90
46378;DHT22;32083;47.360;9.650;2024-01-27T13:11:20;9.00;99.90
46378;DHT22;32083;47.360;9.650;2024-01-27T13:13:47;9.10;99.90
46378;DHT22;32083;47.360;9.650;2024-01-27T13:16:13;9.10;99.90
46378;DHT22;32083;47.360;9.650;2024-01-27T13:18:39;9.10;99.90
46378;DHT22;32083;47.360;9.650;2024-01-27T13:21:05;9.10;99.90
46378;DHT22;32083;47.360;9.650;2024-01-27T13:23:32;9.20;99.90
46378;DHT22;32083;47.360;9.650;2024-01-27T13:26:01;9.20;99.90
46378;DHT22;32083;47.360;9.650;2024-01-27T13:28:27;9.30;99.90
46378;DHT22;32083;47.360;9.650;2024-01-27T13:31:24;9.40;99.90
46378;DHT22;32083;47.360;9.650;2024-01-27T13:34:34;9.50;99.90
46378;DHT22;32083;47.360;9.650;2024-01-27T13:37:20;9.50;99.90
46378;DHT22;32083;47.360;9.650;2024-01-27T13:40:32;9.50;99.90
46378;DHT22;32083;47.360;9.650;2024-01-27T13:43:22;9.50;99.90
46378;DHT22;32083;47.360;9.650;2024-01-27T13:46:22;9.60;99.90
46378;DHT22;32083;47.360;9.650;2024-01-27T13:51:55;9.70;99.90
46378;DHT22;32083;47.360;9.650;2024-01-27T13:54:36;9.70;99.90
46378;DHT22;32083;47.360;9.650;2024-01-27T14:03:22;9.80;99.90
46378;DHT22;32083;47.360;9.650;2024-01-27T14:06:15;9.80;99.90
46378;DHT22;32083;47.360;9.650;2024-01-27T14:08:57;9.80;99.90
46378;DHT22;32083;47.360;9.650;2024-01-27T14:11:43;9.80;99.90
46378;DHT22;32083;47.360;9.650;2024-01-27T14:14:33;9.70;99.90
46378;DHT22;32083;47.360;9.650;2024-01-27T14:17:17;9.70;99.90
46378;DHT22;32083;47.360;9.650;2024-01-27T14:20:08;9.60;99.90
46378;DHT22;32083;47.360;9.650;2024-01-27T14:23:35;9.60;99.90
46378;DHT22;32083;47.360;9.650;2024-01-27T14:26:09;9.60;99.90
46378;DHT22;32083;47.360;9.650;2024-01-27T14:28:44;9.60;99.90
46378;DHT22;32083;47.360;9.650;2024-01-27T14:31:38;9.50;99.90
46378;DHT22;32083;47.360;9.650;2024-01-27T14:34:11;9.50;99.90
46378;DHT22;32083;47.360;9.650;2024-01-27T14:36:49;9.50;99.90
46378;DHT22;32083;47.360;9.650;2024-01-27T14:39:30;9.40;99.90
46378;DHT22;32083;47.360;9.650;2024-01-27T14:42:09;9.40;99.90
46378;DHT22;32083;47.360;9.650;2024-01-27T14:44:41;9.40;99.90
46378;DHT22;32083;47.360;9.650;2024-01-27T14:47:30;9.40;99.90
46378;DHT22;32083;47.360;9.650;2024-01-27T14:50:09;9.50;99.90
46378;DHT22;32083;47.360;9.650;2024-01-27T14:52:58;9.50;99.90
46378;DHT22;32083;47.360;9.650;2024-01-27T14:55:32;9.50;99.90
46378;DHT22;32083;47.360;9.650;2024-01-27T14:57:59;9.50;99.90
46378;DHT22;32083;47.360;9.650;2024-01-27T15:00:24;9.50;99.90
46378;DHT22;32083;47.360;9.650;2024-01-27T15:02:51;9.50;99.90
46378;DHT22;32083;47.360;9.650;2024-01-27T15:05:18;9.50;99.90
46378;DHT22;32083;47.360;9.650;2024-01-27T15:07:45;9.50;99.90
46378;DHT22;32083;47.360;9.650;2024-01-27T15:10:12;9.50;99.90
46378;DHT22;32083;47.360;9.650;2024-01-27T15:12:38;9.50;99.90
46378;DHT22;32083;47.360;9.650;2024-01-27T15:15:05;9.50;99.90
46378;DHT22;32083;47.360;9.650;2024-01-27T15:17:31;9.40;99.90
46378;DHT22;32083;47.360;9.650;2024-01-27T15:19:57;9.30;99.90
46378;DHT22;32083;47.360;9.650;2024-01-27T15:22:23;9.30;99.90
46378;DHT22;32083;47.360;9.650;2024-01-27T15:24:49;9.30;99.90
46378;DHT22;32083;47.360;9.650;2024-01-27T15:27:15;9.30;99.90
46378;DHT22;32083;47.360;9.650;2024-01-27T15:29:41;9.30;99.90
46378;DHT22;32083;47.360;9.650;2024-01-27T15:32:08;9.30;99.90
46378;DHT22;32083;47.360;9.650;2024-01-27T15:34:34;9.20;99.90
46378;DHT22;32083;47.360;9.650;2024-01-27T15:37:01;9.20;99.90
46378;DHT22;32083;47.360;9.650;2024-01-27T15:39:27;9.10;99.90
46378;DHT22;32083;47.360;9.650;2024-01-27T15:41:53;9.00;99.90
46378;DHT22;32083;47.360;9.650;2024-01-27T15:44:19;9.00;99.90
46378;DHT22;32083;47.360;9.650;2024-01-27T15:46:45;9.00;99.90
46378;DHT22;32083;47.360;9.650;2024-01-27T15:49:11;8.90;99.90
46378;DHT22;32083;47.360;9.650;2024-01-27T15:51:37;8.80;99.90
46378;DHT22;32083;47.360;9.650;2024-01-27T15:54:04;8.80;99.90
46378;DHT22;32083;47.360;9.650;2024-01-27T15:56:30;8.70;99.90
46378;DHT22;32083;47.360;9.650;2024-01-27T15:58:56;8.60;99.90
46378;DHT22;32083;47.360;9.650;2024-01-27T16:01:22;8.60;99.90
46378;DHT22;32083;47.360;9.650;2024-01-27T16:03:48;8.50;99.90
46378;DHT22;32083;47.360;9.650;2024-01-27T16:06:16;8.50;99.90
46378;DHT22;32083;47.360;9.650;2024-01-27T16:08:42;8.40;99.90
46378;DHT22;32083;47.360;9.650;2024-01-27T16:11:08;8.40;99.90
46378;DHT22;32083;47.360;9.650;2024-01-27T16:13:34;8.30;99.90
46378;DHT22;32083;47.360;9.650;2024-01-27T16:16:01;8.20;99.90
46378;DHT22;32083;47.360;9.650;2024-01-27T16:18:27;8.20;99.90
46378;DHT22;32083;47.360;9.650;2024-01-27T16:20:53;8.20;99.90
46378;DHT22;32083;47.360;9.650;2024-01-27T16:23:19;8.10;99.90
46378;DHT22;32083;47.360;9.650;2024-01-27T16:25:45;8.00;99.90
46378;DHT22;32083;47.360;9.650;2024-01-27T16:28:11;8.00;99.90
46378;DHT22;32083;47.360;9.650;2024-01-27T16:30:37;7.90;99.90
46378;DHT22;32083;47.360;9.650;2024-01-27T16:33:06;7.80;99.90
46378;DHT22;32083;47.360;9.650;2024-01-27T16:35:32;7.80;99.90
46378;DHT22;32083;47.360;9.650;2024-01-27T16:37:59;7.70;99.90
46378;DHT22;32083;47.360;9.650;2024-01-27T16:40:25;7.60;99.90
46378;DHT22;32083;47.360;9.650;2024-01-27T16:42:51;7.50;99.90
46378;DHT22;32083;47.360;9.650;2024-01-27T16:45:17;7.50;99.90
46378;DHT22;32083;47.360;9.650;2024-01-27T16:47:43;7.50;99.90
46378;DHT22;32083;47.360;9.650;2024-01-27T16:50:09;7.40;99.90
46378;DHT22;32083;47.360;9.650;2024-01-27T16:52:36;7.30;99.90
46378;DHT22;32083;47.360;9.650;2024-01-27T16:55:03;7.20;99.90
46378;DHT22;32083;47.360;9.650;2024-01-27T16:57:30;7.10;99.90
46378;DHT22;32083;47.360;9.650;2024-01-27T16:59:56;7.00;99.90
46378;DHT22;32083;47.360;9.650;2024-01-27T17:02:22;6.90;99.90
46378;DHT22;32083;47.360;9.650;2024-01-27T17:04:51;6.90;99.90
46378;DHT22;32083;47.360;9.650;2024-01-27T17:07:18;6.90;99.90
46378;DHT22;32083;47.360;9.650;2024-01-27T17:09:44;6.80;99.90
46378;DHT22;32083;47.360;9.650;2024-01-27T17:12:10;6.80;99.90
46378;DHT22;32083;47.360;9.650;2024-01-27T17:14:40;6.70;99.90
46378;DHT22;32083;47.360;9.650;2024-01-27T17:17:06;6.70;99.90
46378;DHT22;32083;47.360;9.650;2024-01-27T17:19:32;6.70;99.90
46378;DHT22;32083;47.360;9.650;2024-01-27T17:21:58;6.60;99.90
46378;DHT22;32083;47.360;9.650;2024-01-27T17:24:24;6.60;99.90
46378;DHT22;32083;47.360;9.650;2024-01-27T17:26:50;6.60;99.90
46378;DHT22;32083;47.360;9.650;2024-01-27T17:29:16;6.60;99.90
46378;DHT22;32083;47.360;9.650;2024-01-27T17:31:47;6.50;99.90
46378;DHT22;32083;47.360;9.650;2024-01-27T17:34:13;6.50;99.90
46378;DHT22;32083;47.360;9.650;2024-01-27T17:36:40;6.40;99.90
46378;DHT22;32083;47.360;9.650;2024-01-27T17:39:06;6.40;99.90
46378;DHT22;32083;47.360;9.650;2024-01-27T17:41:33;6.30;99.90
46378;DHT22;32083;47.360;9.650;2024-01-27T17:43:59;6.20;99.90
46378;DHT22;32083;47.360;9.650;2024-01-27T17:54:19;6.10;99.90
46378;DHT22;32083;47.360;9.650;2024-01-27T17:56:51;6.00;99.90
46378;DHT22;32083;47.360;9.650;2024-01-27T17:59:30;6.00;99.90
46378;DHT22;32083;47.360;9.650;2024-01-27T18:01:56;5.90;99.90
46378;DHT22;32083;47.360;9.650;2024-01-27T18:04:23;5.80;99.90
46378;DHT22;32083;47.360;9.650;2024-01-27T18:06:49;5.80;99.90
46378;DHT22;32083;47.360;9.650;2024-01-27T18:09:15;5.70;99.90
46378;DHT22;32083;47.360;9.650;2024-01-27T18:11:41;5.70;99.90
46378;DHT22;32083;47.360;9.650;2024-01-27T18:14:07;5.70;99.90
46378;DHT22;32083;47.360;9.650;2024-01-27T18:16:33;5.70;99.90
46378;DHT22;32083;47.360;9.650;2024-01-27T18:19:00;5.70;99.90
46378;DHT22;32083;47.360;9.650;2024-01-27T18:21:26;5.70;99.90
46378;DHT22;32083;47.360;9.650;2024-01-27T18:39:27;5.30;99.90
46378;DHT22;32083;47.360;9.650;2024-01-27T18:47:12;5.20;99.90
46378;DHT22;32083;47.360;9.650;2024-01-27T18:49:44;5.10;99.90
46378;DHT22;32083;47.360;9.650;2024-01-27T18:52:10;5.00;99.90
46378;DHT22;32083;47.360;9.650;2024-01-27T18:54:43;5.00;99.90
46378;DHT22;32083;47.360;9.650;2024-01-27T18:57:10;5.00;99.90
46378;DHT22;32083;47.360;9.650;2024-01-27T18:59:41;5.00;99.90
46378;DHT22;32083;47.360;9.650;2024-01-27T19:02:08;4.90;99.90
46378;DHT22;32083;47.360;9.650;2024-01-27T19:04:40;4.90;99.90
46378;DHT22;32083;47.360;9.650;2024-01-27T19:07:07;4.80;99.90
46378;DHT22;32083;47.360;9.650;2024-01-27T19:09:35;4.80;99.90
46378;DHT22;32083;47.360;9.650;2024-01-27T19:12:05;4.70;99.90
46378;DHT22;32083;47.360;9.650;2024-01-27T19:15:00;4.70;99.90
46378;DHT22;32083;47.360;9.650;2024-01-27T19:17:29;4.70;99.90
46378;DHT22;32083;47.360;9.650;2024-01-27T19:20:37;4.60;99.90
46378;DHT22;32083;47.360;9.650;2024-01-27T19:23:06;4.60;99.90
46378;DHT22;32083;47.360;9.650;2024-01-27T19:28:22;4.50;99.90
46378;DHT22;32083;47.360;9.650;2024-01-27T19:30:51;4.40;99.90
46378;DHT22;32083;47.360;9.650;2024-01-27T19:33:17;4.40;99.90
46378;DHT22;32083;47.360;9.650;2024-01-27T19:35:43;4.40;99.90
46378;DHT22;32083;47.360;9.650;2024-01-27T19:38:09;4.30;99.90
46378;DHT22;32083;47.360;9.650;2024-01-27T19:40:45;4.30;99.90
46378;DHT22;32083;47.360;9.650;2024-01-27T19:43:22;4.30;99.90
46378;DHT22;32083;47.360;9.650;2024-01-27T19:45:51;4.30;99.90
46378;DHT22;32083;47.360;9.650;2024-01-27T19:48:19;4.20;99.90
46378;DHT22;32083;47.360;9.650;2024-01-27T19:50:45;4.20;99.90
46378;DHT22;32083;47.360;9.650;2024-01-27T19:53:13;4.10;99.90
46378;DHT22;32083;47.360;9.650;2024-01-27T19:55:51;4.10;99.90
46378;DHT22;32083;47.360;9.650;2024-01-27T19:58:19;4.10;99.90
46378;DHT22;32083;47.360;9.650;2024-01-27T20:01:12;4.10;99.90
46378;DHT22;32083;47.360;9.650;2024-01-27T20:03:49;4.00;99.90
46378;DHT22;32083;47.360;9.650;2024-01-27T20:06:18;4.00;99.90
46378;DHT22;32083;47.360;9.650;2024-01-27T20:08:44;3.90;99.90
46378;DHT22;32083;47.360;9.650;2024-01-27T20:11:10;3.90;99.90
46378;DHT22;32083;47.360;9.650;2024-01-27T20:13:42;3.90;99.90
46378;DHT22;32083;47.360;9.650;2024-01-27T20:16:08;3.80;99.90
46378;DHT22;32083;47.360;9.650;2024-01-27T20:18:42;3.90;99.90
46378;DHT22;32083;47.360;9.650;2024-01-27T20:21:08;3.80;99.90
46378;DHT22;32083;47.360;9.650;2024-01-27T20:23:34;3.80;99.90
46378;DHT22;32083;47.360;9.650;2024-01-27T20:26:00;3.80;99.90
46378;DHT22;32083;47.360;9.650;2024-01-27T20:28:26;3.70;99.90
46378;DHT22;32083;47.360;9.650;2024-01-27T20:30:51;3.70;99.90
46378;DHT22;32083;47.360;9.650;2024-01-27T20:33:19;3.70;99.90
46378;DHT22;32083;47.360;9.650;2024-01-27T20:35:49;3.60;99.90
46378;DHT22;32083;47.360;9.650;2024-01-27T20:38:14;3.60;99.90
46378;DHT22;32083;47.360;9.650;2024-01-27T20:40:40;3.50;99.90
46378;DHT22;32083;47.360;9.650;2024-01-27T21:00:12;3.30;99.90
46378;DHT22;32083;47.360;9.650;2024-01-27T21:07:23;3.20;99.90
46378;DHT22;32083;47.360;9.650;2024-01-27T21:10:16;3.20;99.90
46378;DHT22;32083;47.360;9.650;2024-01-27T21:12:42;3.20;99.90
46378;DHT22;32083;47.360;9.650;2024-01-27T21:15:25;3.10;99.90
46378;DHT22;32083;47.360;9.650;2024-01-27T21:18:53;3.10;99.90
46378;DHT22;32083;47.360;9.650;2024-01-27T21:39:03;2.90;99.90
46378;DHT22;32083;47.360;9.650;2024-01-27T21:41:32;2.90;99.90
46378;DHT22;32083;47.360;9.650;2024-01-27T21:43:58;2.90;99.90
46378;DHT22;32083;47.360;9.650;2024-01-27T21:46:24;2.90;99.90
46378;DHT22;32083;47.360;9.650;2024-01-27T21:48:51;2.80;99.90
46378;DHT22;32083;47.360;9.650;2024-01-27T21:51:17;2.70;99.90
46378;DHT22;32083;47.360;9.650;2024-01-27T21:53:43;2.70;99.90
46378;DHT22;32083;47.360;9.650;2024-01-27T21:56:19;2.80;99.90
46378;DHT22;32083;47.360;9.650;2024-01-27T22:01:48;2.80;99.90
46378;DHT22;32083;47.360;9.650;2024-01-27T22:04:14;2.80;99.90
46378;DHT22;32083;47.360;9.650;2024-01-27T22:06:46;2.80;99.90
46378;DHT22;32083;47.360;9.650;2024-01-27T22:09:12;2.80;99.90
46378;DHT22;32083;47.360;9.650;2024-01-27T22:11:41;2.80;99.90
46378;DHT22;32083;47.360;9.650;2024-01-27T22:14:20;2.60;99.90
46378;DHT22;32083;47.360;9.650;2024-01-27T22:16:46;2.70;99.90
46378;DHT22;32083;47.360;9.650;2024-01-27T22:19:14;2.80;99.90
46378;DHT22;32083;47.360;9.650;2024-01-27T22:21:40;2.80;99.90
46378;DHT22;32083;47.360;9.650;2024-01-27T22:24:09;2.80;99.90
46378;DHT22;32083;47.360;9.650;2024-01-27T22:27:10;2.80;99.90
46378;DHT22;32083;47.360;9.650;2024-01-27T22:29:42;2.80;99.90
46378;DHT22;32083;47.360;9.650;2024-01-27T22:32:08;2.80;99.90
46378;DHT22;32083;47.360;9.650;2024-01-27T23:09:26;2.30;99.90
46378;DHT22;32083;47.360;9.650;2024-01-27T23:11:52;2.20;99.90
46378;DHT22;32083;47.360;9.650;2024-01-27T23:14:18;2.20;99.90
46378;DHT22;32083;47.360;9.650;2024-01-27T23:16:44;2.30;99.90
46378;DHT22;32083;47.360;9.650;2024-01-27T23:19:10;2.20;99.90
46378;DHT22;32083;47.360;9.650;2024-01-27T23:21:38;2.20;99.90
46378;DHT22;32083;47.360;9.650;2024-01-27T23:24:07;2.20;99.90
46378;DHT22;32083;47.360;9.650;2024-01-27T23:26:33;2.10;99.90
46378;DHT22;32083;47.360;9.650;2024-01-27T23:29:02;2.10;99.90
46378;DHT22;32083;47.360;9.650;2024-01-27T23:31:29;2.00;99.90
46378;DHT22;32083;47.360;9.650;2024-01-27T23:33:56;2.00;99.90
46378;DHT22;32083;47.360;9.650;2024-01-27T23:36:22;2.00;99.90
46378;DHT22;32083;47.360;9.650;2024-01-27T23:38:48;2.00;99.90
46378;DHT22;32083;47.360;9.650;2024-01-27T23:41:21;2.00;99.90
46378;DHT22;32083;47.360;9.650;2024-01-27T23:44:00;2.00;99.90
46378;DHT22;32083;47.360;9.650;2024-01-27T23:46:30;1.90;99.90
46378;DHT22;32083;47.360;9.650;2024-01-27T23:48:56;1.90;99.90
46378;DHT22;32083;47.360;9.650;2024-01-27T23:51:22;1.90;99.90
46378;DHT22;32083;47.360;9.650;2024-01-27T23:53:51;1.90;99.90
46378;DHT22;32083;47.360;9.650;2024-01-27T23:56:25;1.90;99.90
46378;DHT22;32083;47.360;9.650;2024-01-27T23:58:51;1.90;99.90
